createdAt,value
2019-04-28T00:01:14.581Z,1.70
2019-04-28T00:03:43.492Z,1.83
2019-04-28T00:06:12.412Z,1.80
2019-04-28T00:08:42.879Z,2.63
2019-04-28T00:11:12.079Z,2.07
2019-04-28T00:13:41.777Z,2.10
2019-04-28T00:16:11.557Z,2.53
2019-04-28T00:18:41.552Z,2.03
2019-04-28T00:21:23.308Z,2.40
2019-04-28T00:24:11.442Z,2.13
2019-04-28T00:26:46.268Z,2.27
2019-04-28T00:29:15.299Z,2.30
2019-04-28T00:31:44.118Z,2.60
2019-04-28T00:34:12.953Z,2.33
2019-04-28T00:36:43.284Z,2.00
2019-04-28T00:39:12.170Z,2.27
2019-04-28T00:41:42.088Z,2.77
2019-04-28T00:44:11.992Z,2.50
2019-04-28T00:46:42.384Z,2.20
2019-04-28T00:49:11.802Z,2.57
2019-04-28T00:51:41.576Z,2.13
2019-04-28T00:54:12.027Z,2.07
2019-04-28T00:56:41.859Z,2.20
2019-04-28T00:59:11.785Z,2.07
2019-04-28T01:01:53.537Z,2.43
2019-04-28T01:04:22.284Z,1.70
2019-04-28T01:06:51.989Z,1.97
2019-04-28T01:09:21.783Z,2.47
2019-04-28T01:11:53.352Z,2.10
2019-04-28T01:14:21.622Z,2.33
2019-04-28T01:16:57.468Z,1.70
2019-04-28T01:19:30.237Z,2.37
2019-04-28T01:22:12.618Z,2.07
2019-04-28T01:24:41.474Z,1.90
2019-04-28T01:27:35.570Z,2.20
2019-04-28T01:30:10.703Z,2.30
2019-04-28T01:32:44.343Z,2.07
2019-04-28T01:35:13.243Z,2.43
2019-04-28T01:37:41.988Z,2.80
2019-04-28T01:40:10.923Z,2.70
2019-04-28T01:42:41.233Z,2.70
2019-04-28T01:45:10.712Z,2.50
2019-04-28T01:47:40.487Z,2.13
2019-04-28T01:50:10.193Z,2.47
2019-04-28T01:52:39.929Z,2.13
2019-04-28T01:55:10.178Z,2.60
2019-04-28T01:57:40.012Z,2.50
2019-04-28T02:00:22.224Z,2.80
2019-04-28T02:02:42.788Z,2.73
2019-04-28T02:05:11.725Z,3.10
2019-04-28T02:07:40.790Z,3.40
2019-04-28T02:10:10.331Z,3.57
2019-04-28T02:12:40.436Z,3.50
2019-04-28T02:15:10.505Z,3.47
2019-04-28T02:17:40.123Z,3.20
2019-04-28T02:20:10.403Z,3.70
2019-04-28T02:23:02.386Z,3.33
2019-04-28T02:25:31.164Z,3.53
2019-04-28T02:27:59.987Z,3.53
2019-04-28T02:30:44.056Z,3.43
2019-04-28T02:33:01.568Z,3.27
2019-04-28T02:35:31.658Z,3.77
2019-04-28T02:38:00.334Z,4.67
2019-04-28T02:40:30.554Z,4.67
2019-04-28T02:43:01.236Z,4.30
2019-04-28T02:45:31.617Z,4.40
2019-04-28T02:48:03.401Z,3.47
2019-04-28T02:50:56.369Z,2.90
2019-04-28T02:53:33.072Z,3.07
2019-04-28T02:56:01.034Z,3.73
2019-04-28T02:58:31.309Z,3.73
2019-04-28T03:01:12.556Z,3.43
2019-04-28T03:03:30.988Z,3.90
2019-04-28T03:06:01.482Z,3.67
2019-04-28T03:08:30.802Z,3.13
2019-04-28T03:11:00.865Z,3.13
2019-04-28T03:13:31.092Z,2.80
2019-04-28T03:16:01.471Z,3.93
2019-04-28T03:18:31.686Z,4.00
2019-04-28T03:21:03.567Z,3.57
2019-04-28T03:23:31.394Z,4.03
2019-04-28T03:26:25.241Z,3.73
2019-04-28T03:29:10.801Z,5.07
2019-04-28T03:32:16.469Z,3.93
2019-04-28T03:34:23.336Z,4.30
2019-04-28T03:36:52.157Z,4.33
2019-04-28T03:39:21.021Z,4.23
2019-04-28T03:41:50.277Z,4.40
2019-04-28T03:44:20.855Z,4.90
2019-04-28T03:46:52.956Z,4.40
2019-04-28T03:49:32.174Z,5.50
2019-04-28T03:52:05.562Z,4.30
2019-04-28T03:54:34.630Z,4.40
2019-04-28T03:57:03.573Z,4.70
2019-04-28T03:59:32.407Z,4.27
2019-04-28T04:02:03.405Z,4.60
2019-04-28T04:04:32.330Z,6.00
2019-04-28T04:07:01.704Z,5.43
2019-04-28T04:09:41.656Z,4.97
2019-04-28T04:12:26.606Z,4.43
2019-04-28T04:15:04.846Z,4.70
2019-04-28T04:17:37.777Z,4.00
2019-04-28T04:20:07.472Z,3.67
2019-04-28T04:22:36.237Z,4.23
2019-04-28T04:25:08.756Z,3.73
2019-04-28T04:27:35.916Z,3.90
2019-04-28T04:30:04.959Z,4.20
2019-04-28T04:32:34.182Z,3.67
2019-04-28T04:35:02.991Z,4.00
2019-04-28T04:37:31.756Z,3.57
2019-04-28T04:40:01.195Z,3.50
2019-04-28T04:42:30.912Z,4.30
2019-04-28T04:45:00.567Z,3.80
2019-04-28T04:47:32.554Z,4.10
2019-04-28T04:50:00.392Z,4.27
2019-04-28T04:52:30.429Z,4.20
2019-04-28T04:55:01.312Z,4.37
2019-04-28T04:57:32.242Z,4.47
2019-04-28T05:00:02.049Z,3.90
2019-04-28T05:02:51.167Z,4.03
2019-04-28T05:05:40.333Z,3.63
2019-04-28T05:08:10.151Z,4.00
2019-04-28T05:10:40.427Z,4.00
2019-04-28T05:13:10.195Z,3.80
2019-04-28T05:15:40.057Z,4.00
2019-04-28T05:18:10.137Z,3.80
2019-04-28T05:20:40.397Z,3.40
2019-04-28T05:23:15.932Z,3.93
2019-04-28T05:25:44.708Z,4.30
2019-04-28T05:28:13.563Z,3.90
2019-04-28T05:30:43.142Z,4.50
2019-04-28T05:33:30.733Z,4.37
2019-04-28T05:36:01.048Z,4.00
2019-04-28T05:38:30.192Z,4.77
2019-04-28T05:41:02.325Z,4.73
2019-04-28T05:43:29.914Z,4.73
2019-04-28T05:46:00.311Z,4.60
2019-04-28T05:48:54.299Z,4.47
2019-04-28T05:51:24.479Z,4.57
2019-04-28T05:54:00.273Z,5.13
2019-04-28T05:56:35.949Z,6.13
2019-04-28T05:59:09.823Z,6.07
2019-04-28T06:01:56.359Z,6.50
2019-04-28T06:04:27.223Z,5.97
2019-04-28T06:07:00.788Z,6.40
2019-04-28T06:09:36.255Z,6.53
2019-04-28T06:12:06.522Z,6.70
2019-04-28T06:14:35.283Z,7.27
2019-04-28T06:17:04.358Z,7.57
2019-04-28T06:19:33.136Z,8.90
2019-04-28T06:22:01.967Z,8.90
2019-04-28T06:24:30.740Z,9.90
2019-04-28T06:26:59.554Z,9.53
2019-04-28T06:29:28.311Z,9.10
2019-04-28T06:31:57.115Z,9.60
2019-04-28T06:34:25.971Z,8.23
2019-04-28T06:36:54.838Z,8.10
2019-04-28T06:39:23.628Z,5.10
2019-04-28T06:41:52.416Z,5.23
2019-04-28T06:44:21.189Z,5.30
2019-04-28T06:46:50.000Z,6.83
2019-04-28T06:49:18.820Z,8.13
2019-04-28T06:51:47.727Z,9.17
2019-04-28T06:54:16.546Z,7.77
2019-04-28T06:56:45.591Z,7.30
2019-04-28T06:59:14.501Z,7.13
2019-04-28T07:01:43.462Z,7.10
2019-04-28T07:04:12.244Z,6.30
2019-04-28T07:06:41.071Z,7.07
2019-04-28T07:09:10.017Z,7.00
2019-04-28T07:11:39.119Z,6.77
2019-04-28T07:14:07.962Z,7.03
2019-04-28T07:16:37.115Z,6.67
2019-04-28T07:19:06.159Z,5.30
2019-04-28T07:21:40.094Z,4.77
2019-04-28T07:24:09.011Z,4.57
2019-04-28T07:26:37.925Z,4.57
2019-04-28T07:29:06.871Z,4.43
2019-04-28T07:31:35.780Z,4.53
2019-04-28T07:34:04.711Z,4.83
2019-04-28T07:36:33.761Z,5.10
2019-04-28T07:39:02.587Z,3.93
2019-04-28T07:41:31.436Z,3.77
2019-04-28T07:44:00.444Z,3.97
2019-04-28T07:46:29.311Z,4.00
2019-04-28T07:48:58.238Z,4.50
2019-04-28T07:51:30.654Z,4.17
2019-04-28T07:54:05.005Z,4.33
2019-04-28T07:56:33.843Z,4.00
2019-04-28T07:59:02.742Z,4.23
2019-04-28T08:01:31.692Z,4.57
2019-04-28T08:04:02.292Z,4.80
2019-04-28T08:06:31.153Z,5.00
2019-04-28T08:09:02.397Z,5.00
2019-04-28T08:11:30.801Z,5.20
2019-04-28T08:14:00.903Z,5.30
2019-04-28T08:16:29.807Z,5.93
2019-04-28T08:18:58.792Z,5.60
2019-04-28T08:21:27.772Z,5.10
2019-04-28T08:23:56.656Z,5.17
2019-04-28T08:26:25.562Z,5.77
2019-04-28T08:28:54.587Z,5.17
2019-04-28T08:31:26.255Z,5.87
2019-04-28T08:34:02.675Z,5.93
2019-04-28T08:36:30.904Z,6.23
2019-04-28T08:38:59.816Z,6.90
2019-04-28T08:41:28.766Z,6.10
2019-04-28T08:43:57.656Z,6.30
2019-04-28T08:46:26.558Z,6.37
2019-04-28T08:48:55.352Z,6.30
2019-04-28T08:51:24.473Z,6.20
2019-04-28T08:53:53.391Z,5.93
2019-04-28T08:56:22.231Z,5.37
2019-04-28T08:58:51.266Z,6.37
2019-04-28T09:01:20.105Z,5.20
2019-04-28T09:03:51.960Z,4.57
2019-04-28T09:06:20.896Z,4.73
2019-04-28T09:08:49.722Z,4.70
2019-04-28T09:11:18.707Z,4.70
2019-04-28T09:13:47.918Z,4.43
2019-04-28T09:16:16.731Z,4.27
2019-04-28T09:18:45.733Z,3.80
2019-04-28T09:21:14.535Z,3.70
2019-04-28T09:23:43.464Z,3.83
2019-04-28T09:26:12.493Z,4.10
2019-04-28T09:28:41.234Z,6.07
2019-04-28T09:31:10.112Z,4.63
2019-04-28T09:33:39.031Z,3.80
2019-04-28T09:36:08.056Z,4.37
2019-04-28T09:38:36.887Z,4.87
2019-04-28T09:41:08.334Z,5.50
2019-04-28T09:43:54.868Z,4.47
2019-04-28T09:46:27.139Z,4.67
2019-04-28T09:48:55.924Z,5.13
2019-04-28T09:51:24.727Z,4.40
2019-04-28T09:53:53.687Z,4.83
2019-04-28T09:56:22.533Z,4.60
2019-04-28T09:58:51.470Z,4.67
2019-04-28T10:01:20.348Z,5.47
2019-04-28T10:03:49.199Z,4.80
2019-04-28T10:06:18.030Z,4.97
2019-04-28T10:08:47.258Z,4.67
2019-04-28T10:11:29.731Z,4.97
2019-04-28T10:13:47.540Z,4.83
2019-04-28T10:16:16.842Z,5.90
2019-04-28T10:18:45.933Z,5.77
2019-04-28T10:21:14.909Z,5.27
2019-04-28T10:23:44.097Z,5.23
2019-04-28T10:26:13.243Z,5.30
2019-04-28T10:28:42.127Z,4.93
2019-04-28T10:31:13.333Z,4.83
2019-04-28T10:33:43.203Z,5.23
2019-04-28T10:36:12.584Z,5.30
2019-04-28T10:38:43.158Z,4.93
2019-04-28T10:41:33.130Z,4.47
2019-04-28T10:44:02.021Z,5.03
2019-04-28T10:46:30.939Z,4.70
2019-04-28T10:49:00.392Z,5.08
2019-04-28T10:51:29.208Z,5.00
2019-04-28T10:53:58.121Z,4.50
2019-04-28T10:56:27.067Z,4.75
2019-04-28T10:58:56.425Z,4.22
2019-04-28T11:01:25.424Z,4.47
2019-04-28T11:03:56.196Z,4.10
2019-04-28T11:06:25.219Z,4.30
2019-04-28T11:09:30.805Z,4.15
2019-04-28T11:11:56.363Z,3.77
2019-04-28T11:14:26.582Z,4.05
2019-04-28T11:16:55.964Z,5.08
2019-04-28T11:19:25.138Z,5.80
2019-04-28T11:21:54.222Z,5.25
2019-04-28T11:24:23.318Z,5.95
2019-04-28T11:26:52.552Z,5.60
2019-04-28T11:29:21.568Z,6.22
2019-04-28T11:31:50.718Z,5.90
2019-04-28T11:34:31.038Z,6.12
2019-04-28T11:36:59.676Z,6.47
2019-04-28T11:39:31.929Z,6.25
2019-04-28T11:42:00.912Z,6.08
2019-04-28T11:44:30.325Z,6.10
2019-04-28T11:46:59.661Z,5.90
2019-04-28T11:49:28.706Z,6.53
2019-04-28T11:51:57.897Z,4.53
2019-04-28T11:54:26.945Z,3.07
2019-04-28T11:56:56.251Z,2.77
2019-04-28T11:59:25.329Z,3.10
2019-04-28T12:01:54.329Z,2.77
2019-04-28T12:04:23.575Z,3.00
2019-04-28T12:06:52.456Z,2.90
2019-04-28T12:09:32.665Z,2.87
2019-04-28T12:12:02.349Z,2.87
2019-04-28T12:14:48.968Z,3.10
2019-04-28T12:17:36.874Z,3.17
2019-04-28T12:20:13.286Z,3.20
2019-04-28T12:22:42.076Z,3.27
2019-04-28T12:25:11.215Z,3.40
2019-04-28T12:27:39.986Z,3.70
2019-04-28T12:30:09.027Z,3.80
2019-04-28T12:32:37.926Z,3.57
2019-04-28T12:35:07.091Z,4.17
2019-04-28T12:37:35.892Z,4.30
2019-04-28T12:40:05.415Z,4.07
2019-04-28T12:42:34.337Z,4.00
2019-04-28T12:45:03.187Z,4.03
2019-04-28T12:47:31.926Z,3.80
2019-04-28T12:50:11.317Z,3.87
2019-04-28T12:52:40.227Z,3.80
2019-04-28T12:55:09.369Z,3.60
2019-04-28T12:57:38.399Z,3.30
2019-04-28T13:00:24.060Z,3.77
2019-04-28T13:03:10.506Z,3.33
2019-04-28T13:05:40.535Z,3.50
2019-04-28T13:08:09.331Z,3.87
2019-04-28T13:10:38.235Z,3.50
2019-04-28T13:13:07.409Z,3.40
2019-04-28T13:15:36.524Z,3.60
2019-04-28T13:18:05.624Z,3.60
2019-04-28T13:20:34.529Z,3.60
2019-04-28T13:23:03.391Z,3.60
2019-04-28T13:25:32.247Z,3.70
2019-04-28T13:28:01.461Z,3.70
2019-04-28T13:30:30.250Z,4.37
2019-04-28T13:32:59.038Z,4.23
2019-04-28T13:35:28.076Z,3.83
2019-04-28T13:37:56.843Z,3.90
2019-04-28T13:40:29.374Z,3.80
2019-04-28T13:42:58.232Z,3.80
2019-04-28T13:45:27.477Z,3.40
2019-04-28T13:47:56.239Z,3.53
2019-04-28T13:50:32.713Z,3.50
2019-04-28T13:53:01.489Z,2.90
2019-04-28T13:55:44.950Z,3.33
2019-04-28T13:58:13.735Z,3.37
2019-04-28T14:01:07.600Z,2.87
2019-04-28T14:03:49.800Z,3.00
2019-04-28T14:06:28.054Z,2.70
2019-04-28T14:08:50.102Z,2.87
2019-04-28T14:11:18.954Z,2.80
2019-04-28T14:13:47.793Z,2.97
2019-04-28T14:16:16.651Z,3.40
2019-04-28T14:18:45.496Z,2.80
2019-04-28T14:21:14.439Z,2.80
2019-04-28T14:23:43.205Z,3.20
2019-04-28T14:26:12.430Z,2.63
2019-04-28T14:28:41.295Z,2.73
2019-04-28T14:31:10.346Z,3.00
2019-04-28T14:33:39.228Z,2.87
2019-04-28T14:36:10.525Z,2.60
2019-04-28T14:38:39.467Z,2.50
2019-04-28T14:41:09.570Z,3.23
2019-04-28T14:43:38.448Z,3.17
2019-04-28T14:46:07.393Z,3.03
2019-04-28T14:48:36.286Z,3.20
2019-04-28T14:51:05.235Z,3.13
2019-04-28T14:53:34.254Z,3.50
2019-04-28T14:56:03.143Z,3.80
2019-04-28T14:58:31.997Z,3.80
2019-04-28T15:01:08.300Z,2.90
2019-04-28T15:03:39.628Z,3.30
2019-04-28T15:06:18.621Z,2.60
2019-04-28T15:08:55.203Z,2.70
2019-04-28T15:11:34.261Z,2.80
2019-04-28T15:14:03.263Z,2.70
2019-04-28T15:16:32.045Z,2.53
2019-04-28T15:19:00.849Z,2.60
2019-04-28T15:21:29.707Z,2.40
2019-04-28T15:23:58.928Z,2.50
2019-04-28T15:26:28.039Z,2.43
2019-04-28T15:28:57.171Z,2.40
2019-04-28T15:31:25.940Z,2.70
2019-04-28T15:33:54.948Z,2.90
2019-04-28T15:36:24.025Z,2.90
2019-04-28T15:38:52.855Z,2.77
2019-04-28T15:41:22.179Z,2.97
2019-04-28T15:43:51.269Z,2.90
2019-04-28T15:46:20.177Z,3.13
2019-04-28T15:48:49.078Z,2.80
2019-04-28T15:51:18.155Z,3.30
2019-04-28T15:53:48.894Z,3.30
2019-04-28T15:56:30.042Z,3.00
2019-04-28T15:58:58.812Z,3.20
2019-04-28T16:01:27.928Z,2.87
2019-04-28T16:03:58.811Z,2.95
2019-04-28T16:06:27.735Z,3.13
2019-04-28T16:09:00.234Z,3.22
2019-04-28T16:11:29.159Z,2.95
2019-04-28T16:13:58.140Z,3.10
2019-04-28T16:16:27.276Z,3.40
2019-04-28T16:18:56.122Z,3.87
2019-04-28T16:21:25.255Z,4.20
2019-04-28T16:23:54.036Z,4.95
2019-04-28T16:26:23.154Z,6.60
2019-04-28T16:28:52.292Z,7.00
2019-04-28T16:31:21.079Z,6.87
2019-04-28T16:33:49.902Z,6.53
2019-04-28T16:36:18.701Z,6.47
2019-04-28T16:38:47.671Z,6.73
2019-04-28T16:41:26.200Z,5.77
2019-04-28T16:44:10.629Z,5.77
2019-04-28T16:46:40.521Z,6.93
2019-04-28T16:49:09.299Z,6.43
2019-04-28T16:51:38.109Z,6.77
2019-04-28T16:54:06.977Z,6.30
2019-04-28T16:56:45.087Z,6.30
2019-04-28T16:59:26.171Z,6.17
2019-04-28T17:02:14.439Z,6.57
2019-04-28T17:04:43.579Z,5.83
2019-04-28T17:07:12.743Z,6.53
2019-04-28T17:09:41.627Z,6.50
2019-04-28T17:12:10.595Z,5.83
2019-04-28T17:14:39.469Z,6.10
2019-04-28T17:17:08.412Z,5.30
2019-04-28T17:19:39.099Z,5.50
2019-04-28T17:22:08.288Z,4.97
2019-04-28T17:24:37.079Z,5.10
2019-04-28T17:27:06.027Z,6.00
2019-04-28T17:29:37.756Z,5.40
2019-04-28T17:32:05.606Z,5.28
2019-04-28T17:34:34.376Z,5.57
2019-04-28T17:37:04.932Z,5.83
2019-04-28T17:39:34.117Z,5.53
2019-04-28T17:42:04.371Z,6.90
2019-04-28T17:44:33.329Z,6.10
2019-04-28T17:47:02.185Z,7.53
2019-04-28T17:49:35.772Z,6.93
2019-04-28T17:52:06.140Z,6.90
2019-04-28T17:54:35.134Z,6.90
2019-04-28T17:57:04.944Z,7.37
2019-04-28T17:59:33.780Z,6.93
2019-04-28T18:02:28.253Z,5.77
2019-04-28T18:05:07.101Z,6.33
2019-04-28T18:07:37.468Z,5.60
2019-04-28T18:10:07.705Z,5.10
2019-04-28T18:12:36.724Z,6.03
2019-04-28T18:15:26.724Z,6.33
2019-04-28T18:18:09.512Z,6.13
2019-04-28T18:20:38.385Z,6.27
2019-04-28T18:23:07.264Z,6.30
2019-04-28T18:25:36.170Z,6.23
2019-04-28T18:28:05.036Z,6.27
2019-04-28T18:30:36.592Z,8.10
2019-04-28T18:33:30.730Z,7.47
2019-04-28T18:36:12.820Z,8.57
2019-04-28T18:38:50.302Z,8.60
2019-04-28T18:41:47.261Z,8.73
2019-04-28T18:44:19.281Z,8.37
2019-04-28T18:46:48.417Z,8.90
2019-04-28T18:49:17.240Z,8.53
2019-04-28T18:51:46.747Z,8.77
2019-04-28T18:54:15.848Z,9.13
2019-04-28T18:56:44.699Z,9.20
2019-04-28T18:59:13.551Z,9.03
2019-04-28T19:01:48.655Z,8.60
2019-04-28T19:04:18.520Z,8.23
2019-04-28T19:06:47.857Z,8.47
2019-04-28T19:09:35.144Z,10.60
2019-04-28T19:12:18.317Z,12.37
2019-04-28T19:14:53.325Z,8.33
2019-04-28T19:17:40.043Z,7.37
2019-04-28T19:20:09.103Z,7.13
2019-04-28T19:22:44.708Z,7.67
2019-04-28T19:25:14.459Z,8.27
2019-04-28T19:27:43.528Z,6.97
2019-04-28T19:30:13.141Z,8.13
2019-04-28T19:32:42.281Z,7.67
2019-04-28T19:35:11.241Z,8.23
2019-04-28T19:37:40.429Z,8.40
2019-04-28T19:40:09.388Z,9.93
2019-04-28T19:42:38.311Z,9.63
2019-04-28T19:45:12.018Z,9.63
2019-04-28T19:47:40.919Z,9.90
2019-04-28T19:50:09.936Z,10.43
2019-04-28T19:52:42.515Z,9.47
2019-04-28T19:55:19.812Z,10.47
2019-04-28T19:58:05.212Z,10.50
2019-04-28T20:00:39.100Z,10.83
2019-04-28T20:03:08.084Z,11.33
2019-04-28T20:05:37.000Z,10.90
2019-04-28T20:08:05.824Z,11.33
2019-04-28T20:10:34.627Z,11.40
2019-04-28T20:13:03.811Z,11.90
2019-04-28T20:15:32.792Z,10.73
2019-04-28T20:18:01.617Z,11.30
2019-04-28T20:20:30.389Z,11.93
2019-04-28T20:22:59.213Z,11.30
2019-04-28T20:25:28.018Z,11.80
2019-04-28T20:27:56.847Z,11.07
2019-04-28T20:30:25.820Z,11.70
2019-04-28T20:33:06.454Z,10.53
2019-04-28T20:35:28.873Z,10.30
2019-04-28T20:38:25.823Z,10.97
2019-04-28T20:41:00.954Z,10.80
2019-04-28T20:43:29.955Z,11.20
2019-04-28T20:45:58.707Z,11.93
2019-04-28T20:48:27.651Z,12.03
2019-04-28T20:50:56.612Z,12.93
2019-04-28T20:53:25.522Z,12.50
2019-04-28T20:55:54.279Z,13.27
2019-04-28T20:58:23.092Z,13.17
2019-04-28T21:00:51.935Z,11.90
2019-04-28T21:03:20.695Z,12.90
2019-04-28T21:05:49.459Z,14.23
2019-04-28T21:08:18.212Z,14.13
2019-04-28T21:10:47.374Z,14.47
2019-04-28T21:13:16.190Z,13.97
2019-04-28T21:15:44.989Z,14.47
2019-04-28T21:18:13.778Z,14.50
2019-04-28T21:20:42.679Z,14.23
2019-04-28T21:23:11.452Z,14.97
2019-04-28T21:25:40.244Z,14.73
2019-04-28T21:28:09.080Z,15.57
2019-04-28T21:30:38.004Z,15.27
2019-04-28T21:33:06.801Z,16.40
2019-04-28T21:35:35.648Z,15.43
2019-04-28T21:38:04.431Z,16.30
2019-04-28T21:40:33.288Z,16.23
2019-04-28T21:43:19.829Z,16.27
2019-04-28T21:45:58.577Z,16.07
2019-04-28T21:48:36.960Z,15.50
2019-04-28T21:51:05.877Z,16.33
2019-04-28T21:53:34.871Z,16.30
2019-04-28T21:56:03.709Z,16.07
2019-04-28T21:58:33.608Z,15.77
2019-04-28T22:01:03.224Z,16.40
2019-04-28T22:03:32.141Z,16.47
2019-04-28T22:06:00.907Z,17.03
2019-04-28T22:08:29.691Z,15.57
2019-04-28T22:10:58.791Z,16.47
2019-04-28T22:13:27.553Z,15.80
2019-04-28T22:15:56.318Z,16.07
2019-04-28T22:18:25.256Z,16.83
2019-04-28T22:20:54.076Z,16.47
2019-04-28T22:23:29.329Z,16.60
2019-04-28T22:25:58.239Z,16.03
2019-04-28T22:28:26.985Z,16.90
2019-04-28T22:30:55.881Z,16.87
2019-04-28T22:33:24.668Z,15.97
2019-04-28T22:35:53.477Z,17.33
2019-04-28T22:38:22.295Z,16.33
2019-04-28T22:40:51.087Z,17.37
2019-04-28T22:43:19.911Z,17.10
2019-04-28T22:45:48.671Z,17.83
2019-04-28T22:48:22.200Z,17.77
2019-04-28T22:50:51.560Z,18.60
2019-04-28T22:53:23.335Z,16.87
2019-04-28T22:56:02.056Z,18.37
2019-04-28T22:58:45.797Z,17.40
2019-04-28T23:01:28.011Z,17.90
2019-04-28T23:04:06.533Z,17.60
2019-04-28T23:06:35.514Z,18.70
2019-04-28T23:09:05.342Z,18.23
2019-04-28T23:11:34.088Z,18.63
2019-04-28T23:14:02.980Z,17.97
2019-04-28T23:16:31.806Z,16.93
2019-04-28T23:19:02.964Z,18.57
2019-04-28T23:21:39.568Z,18.80
2019-04-28T23:24:08.402Z,18.03
2019-04-28T23:26:37.163Z,18.20
2019-04-28T23:29:05.991Z,16.07
2019-04-28T23:31:35.005Z,18.93
2019-04-28T23:34:03.860Z,16.63
2019-04-28T23:36:32.625Z,17.03
2019-04-28T23:39:01.361Z,16.33
2019-04-28T23:42:04.348Z,17.33
2019-04-28T23:44:33.119Z,15.33
2019-04-28T23:47:03.429Z,15.67
2019-04-28T23:49:32.183Z,18.03
2019-04-28T23:52:13.410Z,26.50
2019-04-28T23:54:44.350Z,21.00
2019-04-28T23:57:13.188Z,19.10
2019-04-28T23:59:41.950Z,17.67
